createdAt,value
2022-08-16T00:01:53.821Z,19.81
2022-08-16T00:04:25.900Z,19.80
2022-08-16T00:06:55.012Z,19.99
2022-08-16T00:09:24.049Z,20.12
2022-08-16T00:11:52.725Z,20.17
2022-08-16T00:14:30.474Z,19.93
2022-08-16T00:17:16.303Z,19.94
2022-08-16T00:19:53.747Z,19.86
2022-08-16T00:22:25.000Z,19.66
2022-08-16T00:24:54.431Z,19.73
2022-08-16T00:27:24.478Z,19.87
2022-08-16T00:30:00.504Z,19.58
2022-08-16T00:32:40.095Z,19.59
2022-08-16T00:35:16.805Z,19.69
2022-08-16T00:37:57.568Z,19.77
2022-08-16T00:40:34.861Z,20.00
2022-08-16T00:43:12.108Z,20.12
2022-08-16T00:45:58.218Z,20.04
2022-08-16T00:48:31.907Z,20.06
2022-08-16T00:51:17.753Z,19.95
2022-08-16T00:53:47.736Z,19.99
2022-08-16T00:56:56.281Z,19.83
2022-08-16T00:59:10.057Z,19.80
2022-08-16T01:01:39.038Z,19.91
2022-08-16T01:04:29.704Z,19.85
2022-08-16T01:07:06.677Z,19.68
2022-08-16T01:09:37.678Z,19.69
2022-08-16T01:12:26.268Z,19.43
2022-08-16T01:15:00.379Z,19.40
2022-08-16T01:17:36.681Z,19.47
2022-08-16T01:20:24.081Z,19.60
2022-08-16T01:23:09.280Z,19.68
2022-08-16T01:25:44.164Z,19.53
2022-08-16T01:28:19.700Z,19.45
2022-08-16T01:30:56.481Z,19.40
2022-08-16T01:33:33.392Z,19.36
2022-08-16T01:36:12.044Z,19.32
2022-08-16T01:38:48.912Z,19.34
2022-08-16T01:41:23.832Z,19.28
2022-08-16T01:43:54.680Z,19.23
2022-08-16T01:46:37.767Z,19.38
2022-08-16T01:49:11.206Z,19.37
2022-08-16T01:51:40.974Z,19.35
2022-08-16T01:54:13.248Z,19.31
2022-08-16T01:56:45.577Z,19.28
2022-08-16T01:59:17.700Z,19.23
2022-08-16T02:01:54.462Z,19.04
2022-08-16T02:04:48.664Z,19.02
2022-08-16T02:07:18.830Z,19.15
2022-08-16T02:09:56.887Z,19.13
2022-08-16T02:12:50.187Z,19.15
2022-08-16T02:15:24.959Z,19.13
2022-08-16T02:17:54.731Z,19.19
2022-08-16T02:20:26.487Z,19.26
2022-08-16T02:22:56.722Z,19.10
2022-08-16T02:25:25.593Z,19.06
2022-08-16T02:28:17.133Z,18.81
2022-08-16T02:30:50.509Z,18.83
2022-08-16T02:33:19.402Z,18.77
2022-08-16T02:35:54.500Z,18.73
2022-08-16T02:38:27.933Z,18.73
2022-08-16T02:40:56.699Z,18.76
2022-08-16T02:43:29.309Z,18.86
2022-08-16T02:46:07.562Z,18.67
2022-08-16T02:48:37.885Z,18.60
2022-08-16T02:51:23.474Z,18.89
2022-08-16T02:53:52.933Z,18.62
2022-08-16T02:56:24.490Z,18.64
2022-08-16T02:59:02.909Z,18.62
2022-08-16T03:01:41.710Z,18.59
2022-08-16T03:04:29.961Z,18.66
2022-08-16T03:06:59.323Z,18.60
2022-08-16T03:09:28.640Z,18.63
2022-08-16T03:11:58.370Z,18.60
2022-08-16T03:14:31.159Z,18.66
2022-08-16T03:17:02.071Z,18.70
2022-08-16T03:19:47.155Z,18.59
2022-08-16T03:22:28.807Z,18.47
2022-08-16T03:25:01.597Z,18.50
2022-08-16T03:27:30.668Z,18.43
2022-08-16T03:30:15.947Z,18.39
2022-08-16T03:32:51.716Z,18.45
2022-08-16T03:35:23.542Z,18.54
2022-08-16T03:38:02.873Z,18.53
2022-08-16T03:40:34.964Z,18.48
2022-08-16T03:43:19.935Z,18.42
2022-08-16T03:45:53.103Z,18.39
2022-08-16T03:48:36.257Z,18.49
2022-08-16T03:51:12.914Z,18.40
2022-08-16T03:53:42.457Z,18.33
2022-08-16T03:56:19.891Z,18.30
2022-08-16T03:58:50.961Z,18.33
2022-08-16T04:01:24.088Z,18.34
2022-08-16T04:03:57.569Z,18.27
2022-08-16T04:06:27.501Z,18.20
2022-08-16T04:08:55.867Z,18.18
2022-08-16T04:11:25.465Z,17.93
2022-08-16T04:14:00.959Z,18.00
2022-08-16T04:16:38.632Z,18.14
2022-08-16T04:19:07.287Z,18.12
2022-08-16T04:21:47.425Z,17.97
2022-08-16T04:24:16.820Z,17.93
2022-08-16T04:26:46.495Z,18.01
2022-08-16T04:29:23.552Z,18.05
2022-08-16T04:31:57.975Z,17.99
2022-08-16T04:34:29.193Z,17.89
2022-08-16T04:37:01.010Z,17.74
2022-08-16T04:39:37.127Z,17.94
2022-08-16T04:42:17.880Z,17.85
2022-08-16T04:44:54.590Z,17.78
2022-08-16T04:47:31.682Z,17.64
2022-08-16T04:50:05.275Z,17.72
2022-08-16T04:52:35.856Z,17.71
2022-08-16T04:55:09.468Z,17.70
2022-08-16T04:57:38.882Z,17.67
2022-08-16T05:00:31.014Z,17.66
2022-08-16T05:03:07.258Z,17.78
2022-08-16T05:05:44.917Z,17.87
2022-08-16T05:08:28.398Z,17.87
2022-08-16T05:11:00.291Z,17.88
2022-08-16T05:13:39.836Z,17.84
2022-08-16T05:16:11.787Z,17.83
2022-08-16T05:18:42.112Z,17.90
2022-08-16T05:21:12.589Z,18.06
2022-08-16T05:23:42.164Z,18.08
2022-08-16T05:26:20.342Z,18.22
2022-08-16T05:28:55.328Z,18.28
2022-08-16T05:31:29.522Z,18.27
2022-08-16T05:34:00.624Z,18.16
2022-08-16T05:36:36.509Z,18.28
2022-08-16T05:39:07.719Z,18.31
2022-08-16T05:41:45.580Z,18.32
2022-08-16T05:44:23.576Z,18.40
2022-08-16T05:46:55.794Z,18.62
2022-08-16T05:49:38.799Z,18.52
2022-08-16T05:52:10.661Z,18.80
2022-08-16T05:54:46.044Z,18.81
2022-08-16T05:57:16.405Z,18.88
2022-08-16T05:59:45.618Z,19.00
2022-08-16T06:02:15.174Z,19.08
2022-08-16T06:04:47.165Z,19.04
2022-08-16T06:07:24.657Z,19.03
2022-08-16T06:09:56.426Z,19.31
2022-08-16T06:12:27.547Z,19.16
2022-08-16T06:15:00.145Z,19.23
2022-08-16T06:17:41.113Z,19.25
2022-08-16T06:20:18.466Z,19.28
2022-08-16T06:23:02.868Z,19.56
2022-08-16T06:25:36.713Z,19.43
2022-08-16T06:28:09.742Z,19.42
2022-08-16T06:30:43.746Z,19.55
2022-08-16T06:33:22.360Z,19.40
2022-08-16T06:35:55.196Z,19.43
2022-08-16T06:38:33.994Z,19.43
2022-08-16T06:41:05.571Z,19.54
2022-08-16T06:43:34.684Z,19.68
2022-08-16T06:46:05.822Z,19.71
2022-08-16T06:48:42.717Z,19.76
2022-08-16T06:51:14.892Z,19.89
2022-08-16T06:53:43.558Z,19.84
2022-08-16T06:56:14.537Z,19.92
2022-08-16T06:58:52.232Z,20.01
2022-08-16T07:01:42.774Z,19.83
2022-08-16T07:04:10.352Z,20.17
2022-08-16T07:06:43.509Z,20.25
2022-08-16T07:09:15.842Z,20.38
2022-08-16T07:11:51.542Z,20.42
2022-08-16T07:14:26.307Z,20.43
2022-08-16T07:16:59.253Z,20.65
2022-08-16T07:20:01.459Z,20.72
2022-08-16T07:22:52.385Z,20.67
2022-08-16T07:25:11.999Z,20.91
2022-08-16T07:27:41.241Z,21.07
2022-08-16T07:30:39.814Z,21.21
2022-08-16T07:33:02.443Z,21.29
2022-08-16T07:35:31.451Z,21.40
2022-08-16T07:38:02.165Z,21.58
2022-08-16T07:40:59.228Z,21.33
2022-08-16T07:43:20.449Z,21.40
2022-08-16T07:45:53.223Z,21.45
2022-08-16T07:48:24.029Z,21.39
2022-08-16T07:50:56.281Z,21.38
2022-08-16T07:53:30.525Z,21.59
2022-08-16T07:56:01.004Z,21.60
2022-08-16T07:58:36.310Z,21.67
2022-08-16T08:01:11.053Z,21.95
2022-08-16T08:03:48.365Z,21.94
2022-08-16T08:06:19.038Z,21.97
2022-08-16T08:08:52.160Z,21.97
2022-08-16T08:11:23.590Z,22.13
2022-08-16T08:13:53.974Z,22.30
2022-08-16T08:16:30.836Z,22.53
2022-08-16T08:19:02.406Z,22.64
2022-08-16T08:22:00.555Z,22.65
2022-08-16T08:24:31.991Z,22.25
2022-08-16T08:27:04.035Z,22.11
2022-08-16T08:29:37.254Z,21.97
2022-08-16T08:32:57.193Z,22.28
2022-08-16T08:35:03.599Z,22.56
2022-08-16T08:37:54.061Z,22.81
2022-08-16T08:40:26.732Z,23.28
2022-08-16T08:43:11.361Z,23.52
2022-08-16T08:45:52.765Z,23.72
2022-08-16T08:48:33.619Z,23.60
2022-08-16T08:51:03.951Z,23.70
2022-08-16T08:53:34.256Z,23.73
2022-08-16T08:56:23.199Z,23.81
2022-08-16T08:58:58.898Z,24.22
2022-08-16T09:01:36.900Z,24.46
2022-08-16T09:04:14.684Z,24.60
2022-08-16T09:06:46.937Z,24.74
2022-08-16T09:09:16.884Z,24.46
2022-08-16T09:11:53.524Z,24.74
2022-08-16T09:14:34.411Z,24.84
2022-08-16T09:17:11.370Z,24.90
2022-08-16T09:19:46.205Z,24.90
2022-08-16T09:22:19.821Z,24.40
2022-08-16T09:24:53.611Z,24.69
2022-08-16T09:27:25.220Z,25.06
2022-08-16T09:30:00.169Z,24.98
2022-08-16T09:32:31.311Z,25.63
2022-08-16T09:35:03.101Z,25.67
2022-08-16T09:37:36.883Z,25.84
2022-08-16T09:40:17.997Z,25.91
2022-08-16T09:42:59.373Z,26.24
2022-08-16T09:45:30.283Z,26.27
2022-08-16T09:47:59.987Z,26.32
2022-08-16T09:50:37.168Z,26.05
2022-08-16T09:53:15.108Z,26.40
2022-08-16T09:55:50.857Z,26.77
2022-08-16T09:58:41.873Z,26.79
2022-08-16T10:01:19.511Z,26.70
2022-08-16T10:04:02.457Z,26.98
2022-08-16T10:06:35.169Z,27.20
2022-08-16T10:09:06.745Z,27.23
2022-08-16T10:11:54.698Z,26.87
2022-08-16T10:14:33.447Z,26.99
2022-08-16T10:17:04.672Z,26.76
2022-08-16T10:19:33.357Z,26.99
2022-08-16T10:22:04.894Z,27.30
2022-08-16T10:24:35.339Z,27.48
2022-08-16T10:27:26.095Z,27.79
2022-08-16T10:30:01.401Z,26.73
2022-08-16T10:32:35.168Z,27.23
2022-08-16T10:35:03.952Z,27.74
2022-08-16T10:37:36.136Z,27.48
2022-08-16T10:40:28.301Z,27.93
2022-08-16T10:43:03.673Z,28.44
2022-08-16T10:45:38.230Z,28.50
2022-08-16T10:48:27.037Z,28.35
2022-08-16T10:50:58.986Z,28.95
2022-08-16T10:53:32.803Z,29.10
2022-08-16T10:56:03.309Z,29.44
2022-08-16T10:58:35.834Z,29.53
2022-08-16T11:03:57.474Z,29.30
2022-08-16T11:06:28.777Z,29.35
2022-08-16T11:14:36.294Z,28.91
2022-08-16T11:17:11.040Z,29.30
2022-08-16T11:22:47.232Z,29.65
2022-08-16T11:28:11.769Z,29.10
2022-08-16T11:30:59.612Z,29.58
2022-08-16T11:36:25.089Z,29.22
2022-08-16T11:38:58.111Z,29.24
2022-08-16T11:41:30.796Z,27.95
2022-08-16T11:44:01.227Z,27.65
2022-08-16T11:46:44.813Z,28.62
2022-08-16T11:49:17.473Z,29.81
2022-08-16T11:51:46.489Z,30.06
2022-08-16T11:54:21.460Z,30.24
2022-08-16T11:56:57.209Z,30.69
2022-08-16T11:59:28.664Z,28.92
2022-08-16T12:01:59.251Z,29.57
2022-08-16T12:04:30.367Z,29.00
2022-08-16T12:06:58.952Z,28.27
2022-08-16T12:09:29.808Z,29.10
2022-08-16T12:12:02.893Z,29.60
2022-08-16T12:14:37.642Z,28.95
2022-08-16T12:17:08.510Z,28.82
2022-08-16T12:19:39.501Z,29.62
2022-08-16T12:22:19.122Z,29.77
2022-08-16T12:24:51.885Z,30.55
2022-08-16T12:27:24.458Z,30.57
2022-08-16T12:29:58.347Z,30.49
2022-08-16T12:32:37.854Z,30.97
2022-08-16T12:35:14.767Z,30.88
2022-08-16T12:37:47.325Z,30.93
2022-08-16T12:40:24.955Z,31.20
2022-08-16T12:43:00.846Z,31.05
2022-08-16T12:45:32.732Z,31.26
2022-08-16T12:48:35.316Z,29.89
2022-08-16T12:51:13.404Z,30.69
2022-08-16T12:53:50.657Z,30.69
2022-08-16T12:56:21.781Z,31.31
2022-08-16T12:58:56.609Z,31.48
2022-08-16T13:01:33.490Z,31.75
2022-08-16T13:04:11.937Z,30.61
2022-08-16T13:06:52.566Z,30.07
2022-08-16T13:09:26.456Z,30.53
2022-08-16T13:12:04.580Z,31.24
2022-08-16T13:14:36.872Z,30.74
2022-08-16T13:17:07.828Z,31.46
2022-08-16T13:20:03.851Z,31.68
2022-08-16T13:22:26.951Z,31.21
2022-08-16T13:24:56.221Z,30.00
2022-08-16T13:27:34.885Z,31.40
2022-08-16T13:30:35.776Z,31.84
2022-08-16T13:33:12.444Z,30.87
2022-08-16T13:35:44.240Z,31.32
2022-08-16T13:38:25.204Z,30.98
2022-08-16T13:40:55.756Z,31.21
2022-08-16T13:43:27.695Z,31.01
2022-08-16T13:45:57.873Z,32.21
2022-08-16T13:48:42.899Z,32.72
2022-08-16T13:51:16.873Z,33.09
2022-08-16T13:53:49.486Z,31.76
2022-08-16T13:56:25.031Z,30.09
2022-08-16T13:58:55.635Z,30.93
2022-08-16T14:01:24.888Z,30.90
2022-08-16T14:03:54.832Z,31.05
2022-08-16T14:06:24.450Z,32.17
2022-08-16T14:08:59.135Z,32.67
2022-08-16T14:11:35.724Z,31.39
2022-08-16T14:14:05.306Z,31.75
2022-08-16T14:16:34.786Z,32.37
2022-08-16T14:19:08.035Z,33.03
2022-08-16T14:21:36.347Z,33.21
2022-08-16T14:24:12.780Z,32.89
2022-08-16T14:26:52.626Z,32.51
2022-08-16T14:29:23.308Z,33.31
2022-08-16T14:31:53.565Z,32.33
2022-08-16T14:34:25.671Z,32.90
2022-08-16T14:36:57.678Z,32.38
2022-08-16T14:39:32.520Z,32.57
2022-08-16T14:42:09.237Z,32.03
2022-08-16T14:44:40.176Z,31.57
2022-08-16T14:47:09.454Z,31.34
2022-08-16T14:49:40.829Z,32.04
2022-08-16T14:52:12.556Z,32.36
2022-08-16T14:54:47.799Z,32.58
2022-08-16T14:57:18.712Z,32.49
2022-08-16T14:59:47.259Z,32.44
2022-08-16T15:02:23.476Z,32.75
2022-08-16T15:05:04.589Z,33.57
2022-08-16T15:07:35.363Z,33.46
2022-08-16T15:10:06.540Z,33.77
2022-08-16T15:12:39.590Z,34.18
2022-08-16T15:15:16.776Z,33.70
2022-08-16T15:17:54.483Z,33.68
2022-08-16T15:20:29.387Z,34.61
2022-08-16T15:23:00.255Z,35.15
2022-08-16T15:25:33.332Z,35.45
2022-08-16T15:28:05.435Z,35.35
2022-08-16T15:30:47.827Z,35.63
2022-08-16T15:33:27.496Z,35.37
2022-08-16T15:35:57.865Z,34.85
2022-08-16T15:38:54.801Z,35.07
2022-08-16T15:41:51.164Z,34.83
2022-08-16T15:44:30.433Z,34.70
2022-08-16T15:47:02.618Z,34.58
2022-08-16T15:49:38.673Z,34.81
2022-08-16T15:52:20.585Z,34.43
2022-08-16T15:54:53.441Z,34.47
2022-08-16T15:57:36.955Z,34.61
2022-08-16T16:00:15.419Z,34.78
2022-08-16T16:02:44.536Z,34.80
2022-08-16T16:05:13.681Z,35.03
2022-08-16T16:07:55.797Z,35.05
2022-08-16T16:10:30.162Z,34.65
2022-08-16T16:13:03.976Z,35.00
2022-08-16T16:15:35.168Z,35.16
2022-08-16T16:18:09.121Z,34.88
2022-08-16T16:20:39.252Z,34.60
2022-08-16T16:23:11.107Z,34.21
2022-08-16T16:25:44.003Z,34.03
2022-08-16T16:29:05.716Z,33.99
2022-08-16T16:31:05.942Z,35.00
2022-08-16T16:33:39.878Z,35.25
2022-08-16T16:36:10.594Z,34.49
2022-08-16T16:38:42.827Z,34.07
2022-08-16T16:41:14.042Z,33.46
2022-08-16T16:43:45.581Z,34.03
2022-08-16T16:46:32.822Z,34.45
2022-08-16T16:49:08.802Z,34.61
2022-08-16T16:51:41.298Z,34.55
2022-08-16T16:54:13.786Z,34.86
2022-08-16T16:56:57.301Z,34.71
2022-08-16T16:59:28.028Z,34.51
2022-08-16T17:02:41.618Z,34.74
2022-08-16T17:04:47.754Z,34.39
2022-08-16T17:07:16.290Z,34.80
2022-08-16T17:09:46.039Z,34.69
2022-08-16T17:12:24.591Z,34.82
2022-08-16T17:14:56.252Z,35.12
2022-08-16T17:17:25.206Z,35.32
2022-08-16T17:19:55.675Z,35.83
2022-08-16T17:22:32.996Z,35.69
2022-08-16T17:25:01.957Z,35.24
2022-08-16T17:27:33.621Z,34.84
2022-08-16T17:30:15.915Z,33.83
2022-08-16T17:32:50.658Z,33.47
2022-08-16T17:38:17.569Z,32.53
2022-08-16T17:39:28.236Z,32.64
2022-08-16T17:41:09.114Z,32.29
2022-08-16T17:43:44.597Z,32.02
2022-08-16T17:46:41.598Z,31.93
2022-08-16T17:49:06.499Z,31.88
2022-08-16T17:51:35.062Z,31.70
2022-08-16T17:54:04.442Z,31.59
2022-08-16T17:56:35.189Z,31.51
2022-08-16T17:59:04.644Z,31.50
2022-08-16T18:01:34.893Z,31.52
2022-08-16T18:04:10.042Z,31.36
2022-08-16T18:06:40.033Z,31.34
2022-08-16T18:09:10.432Z,31.13
2022-08-16T18:11:43.201Z,30.96
2022-08-16T18:14:15.826Z,31.14
2022-08-16T18:16:48.991Z,31.34
2022-08-16T18:19:18.445Z,31.48
2022-08-16T18:22:04.392Z,31.30
2022-08-16T18:24:33.452Z,31.07
2022-08-16T18:27:25.162Z,30.88
2022-08-16T18:29:52.275Z,30.56
2022-08-16T18:32:24.461Z,30.28
2022-08-16T18:34:55.094Z,30.16
2022-08-16T18:37:23.882Z,30.07
2022-08-16T18:39:53.743Z,30.19
2022-08-16T18:42:24.881Z,30.32
2022-08-16T18:44:53.587Z,30.14
2022-08-16T18:47:23.852Z,29.83
2022-08-16T18:49:52.339Z,29.72
2022-08-16T18:52:25.098Z,29.56
2022-08-16T18:55:01.865Z,29.62
2022-08-16T18:57:31.607Z,29.59
2022-08-16T19:00:01.437Z,29.32
2022-08-16T19:02:58.242Z,29.39
2022-08-16T19:05:23.548Z,29.24
2022-08-16T19:07:52.682Z,29.04
2022-08-16T19:10:21.324Z,29.02
2022-08-16T19:12:50.082Z,29.15
2022-08-16T19:15:28.575Z,28.96
2022-08-16T19:17:59.417Z,28.73
2022-08-16T19:20:36.170Z,28.66
2022-08-16T19:23:10.181Z,28.54
2022-08-16T19:25:47.837Z,28.48
2022-08-16T19:28:50.115Z,28.07
2022-08-16T19:31:12.747Z,27.90
2022-08-16T19:33:54.312Z,27.70
2022-08-16T19:36:31.140Z,27.47
2022-08-16T19:39:04.698Z,27.38
2022-08-16T19:41:35.860Z,27.27
2022-08-16T19:44:05.576Z,27.33
2022-08-16T19:46:34.501Z,27.13
2022-08-16T19:49:05.357Z,26.83
2022-08-16T19:51:34.413Z,26.86
2022-08-16T19:54:03.569Z,26.61
2022-08-16T19:56:33.389Z,26.61
2022-08-16T19:59:18.872Z,26.38
2022-08-16T20:01:52.549Z,26.32
2022-08-16T20:04:24.747Z,26.31
2022-08-16T20:06:53.947Z,26.22
2022-08-16T20:09:24.262Z,26.20
2022-08-16T20:12:02.331Z,26.27
2022-08-16T20:14:31.270Z,26.23
2022-08-16T20:17:01.578Z,26.19
2022-08-16T20:19:36.213Z,26.13
2022-08-16T20:22:52.613Z,26.08
2022-08-16T20:25:28.429Z,26.15
2022-08-16T20:27:58.398Z,26.18
2022-08-16T20:30:27.974Z,26.11
2022-08-16T20:32:58.086Z,26.03
2022-08-16T20:35:30.641Z,25.79
2022-08-16T20:38:02.513Z,25.65
2022-08-16T20:40:34.545Z,25.61
2022-08-16T20:43:07.842Z,25.53
2022-08-16T20:45:37.276Z,25.37
2022-08-16T20:48:09.980Z,25.44
2022-08-16T20:50:42.146Z,25.37
2022-08-16T20:53:11.462Z,25.33
2022-08-16T20:55:41.880Z,25.16
2022-08-16T20:58:09.984Z,24.98
2022-08-16T21:00:40.367Z,24.92
2022-08-16T21:03:09.936Z,24.61
2022-08-16T21:05:45.534Z,24.60
2022-08-16T21:08:52.219Z,24.66
2022-08-16T21:11:08.104Z,24.68
2022-08-16T21:13:42.647Z,24.60
2022-08-16T21:16:11.789Z,24.80
2022-08-16T21:18:40.461Z,24.54
2022-08-16T21:21:12.225Z,24.40
2022-08-16T21:23:45.409Z,24.57
2022-08-16T21:26:16.083Z,24.55
2022-08-16T21:28:45.459Z,24.49
2022-08-16T21:31:16.355Z,24.67
2022-08-16T21:33:55.310Z,24.63
2022-08-16T21:36:34.977Z,24.62
2022-08-16T21:39:12.824Z,24.64
2022-08-16T21:41:45.114Z,24.64
2022-08-16T21:44:14.611Z,24.61
2022-08-16T21:46:43.018Z,24.60
2022-08-16T21:49:14.884Z,24.52
2022-08-16T21:51:47.161Z,24.61
2022-08-16T21:54:15.561Z,24.38
2022-08-16T21:56:44.049Z,24.10
2022-08-16T21:59:13.523Z,24.03
2022-08-16T22:01:44.225Z,24.06
2022-08-16T22:04:37.730Z,24.28
2022-08-16T22:07:05.949Z,24.10
2022-08-16T22:09:34.608Z,24.11
2022-08-16T22:12:03.491Z,23.97
2022-08-16T22:14:33.767Z,24.05
2022-08-16T22:17:02.350Z,24.01
2022-08-16T22:19:31.142Z,23.83
2022-08-16T22:22:02.183Z,23.66
2022-08-16T22:24:31.938Z,23.70
2022-08-16T22:27:00.638Z,23.66
2022-08-16T22:29:29.559Z,23.66
2022-08-16T22:32:02.507Z,23.76
2022-08-16T22:34:32.495Z,23.82
2022-08-16T22:37:02.783Z,23.78
2022-08-16T22:39:35.664Z,23.91
2022-08-16T22:42:11.975Z,23.98
2022-08-16T22:44:44.231Z,23.94
2022-08-16T22:47:14.866Z,23.89
2022-08-16T22:49:43.403Z,23.77
2022-08-16T22:52:11.980Z,23.77
2022-08-16T22:54:48.514Z,23.86
2022-08-16T22:57:17.385Z,23.93
2022-08-16T22:59:46.940Z,23.87
2022-08-16T23:02:21.401Z,23.74
2022-08-16T23:04:52.438Z,23.81
2022-08-16T23:07:20.715Z,23.80
2022-08-16T23:09:50.665Z,23.70
2022-08-16T23:12:29.268Z,23.64
2022-08-16T23:15:03.094Z,23.55
2022-08-16T23:17:34.007Z,23.52
2022-08-16T23:20:06.126Z,23.34
2022-08-16T23:23:19.369Z,23.26
2022-08-16T23:25:35.229Z,23.14
2022-08-16T23:28:05.021Z,23.20
2022-08-16T23:30:34.555Z,23.02
2022-08-16T23:33:12.220Z,23.07
2022-08-16T23:35:47.733Z,23.03
2022-08-16T23:38:38.923Z,22.86
2022-08-16T23:41:11.477Z,22.94
2022-08-16T23:43:43.361Z,22.87
2022-08-16T23:46:15.288Z,22.81
2022-08-16T23:49:57.262Z,22.72
2022-08-16T23:51:35.215Z,22.65
2022-08-16T23:54:03.269Z,22.50
2022-08-16T23:56:40.159Z,22.40
2022-08-16T23:59:09.193Z,22.20
